首页
METAR-TAF:

METAR-TAF

机场 :

Norway House, 曼尼托巴, 加拿大

纬度: 53-58N, 经度: 097-50W, 海拔: 223米

当前天气观测

该预报发布于38分钟前的21:18 UTC
风速4节,风向多变
温度 15°C
湿度 36%
气压 994 hPa
能見度: 2.0公里
散云层高于600英尺
散云层高于1100英尺
多云层高于2000英尺
阴天层高于2500英尺
雷暴, 大雨

METAR: CYNE 242118Z AUTO VRB04KT 1 1/4SM +TSRA SCT006 SCT011 BKN020 OVC025 15/ A2934 RMK LTNG DIST ALQDS PCPN 4.6MM PAST HR DP MISG SLP941 DENSITY ALT 1700FT

时间: 16:56 (21:56 UTC)

预报

该预报发布于50分钟前的21:06 UTC
预报有效从24日的 21点(UTC)到 25日的 07点(UTC)
风速5节,风向
能見度: 10公里
散云层高于4000英尺
多云层高于12000英尺
短暂存在
从 24日的 21点(UTC)到 24日的 23点(UTC)
风速20节,风向多变,有时为30节阵风
能見度: 3.2公里
散云层高于600英尺
阴天层高于2000英尺, 积雨云.
雷暴, 雨, 轻雾
从 24日的 2300点(UTC)
风速12节,风向南转南东
能見度: 10公里
散云层高于4000英尺
多云层高于12000英尺
短暂存在
从 24日的 23点(UTC)到 25日的 07点(UTC)
能見度: 10公里
散云层高于2000英尺
阴天层高于4000英尺
小阵雨
几率 30%
从 24日的 23点(UTC)到 25日的 07点(UTC)
风速20节,风向多变,有时为30节阵风
能見度: 8.0公里
阴天层高于2000英尺, 积雨云.
雷暴, 雨, 轻雾

TAF: CYNE 242106Z 2421/2507 08005KT P6SM SCT040 BKN120 TEMPO 2421/2423 VRB20G30KT 2SM TSRA BR SCT006 OVC020CB FM242300 15012KT P6SM SCT040 BKN120 TEMPO 2423/2507 P6SM -SHRA SCT020 OVC040 PROB30 2423/2507 VRB20G30KT 5SM TSRA BR OVC020CB RMK FCST BASED ON AUTO OBS. NXT FCST BY 250100Z

超过4000个机场的气象观测和天气预报(METAR&TAF报告)。

可查询的气象台以黄色和红色小点在地图上表示。

将鼠标移到小点上方,可查看气象台名称。

然后点击查看天气观测和预报。

如需切换地图:点击带黑十字的绿色按钮放大地图;点击带横线的绿色按钮缩小地图;或者点击绿色箭头查看邻近地区的地图。


METAR-TAF: